createdAt,value
2018-08-28T00:00:06.173Z,100928.00
2018-08-28T00:02:35.496Z,100933.00
2018-08-28T00:05:04.853Z,100928.00
2018-08-28T00:07:34.224Z,100925.00
2018-08-28T00:10:03.569Z,100927.00
2018-08-28T00:12:32.952Z,100934.00
2018-08-28T00:15:03.394Z,100928.00
2018-08-28T00:17:32.676Z,100937.00
2018-08-28T00:20:01.883Z,100941.00
2018-08-28T00:22:31.304Z,100933.00
2018-08-28T00:25:00.710Z,100936.00
2018-08-28T00:27:30.092Z,100940.00
2018-08-28T00:29:59.340Z,100937.00
2018-08-28T00:32:28.614Z,100935.00
2018-08-28T00:34:58.075Z,100944.00
2018-08-28T00:37:27.336Z,100953.00
2018-08-28T00:39:56.607Z,100944.00
2018-08-28T00:42:25.952Z,100939.00
2018-08-28T00:44:55.209Z,100944.00
2018-08-28T00:47:24.535Z,100953.00
2018-08-28T00:49:55.014Z,100948.00
2018-08-28T00:52:24.304Z,100959.00
2018-08-28T00:54:53.719Z,100951.00
2018-08-28T00:57:23.043Z,100954.00
2018-08-28T00:59:52.513Z,100955.00
2018-08-28T01:02:21.788Z,100958.00
2018-08-28T01:04:51.019Z,100953.00
2018-08-28T01:07:20.287Z,100958.00
2018-08-28T01:09:49.584Z,100959.00
2018-08-28T01:12:19.014Z,100957.00
2018-08-28T01:14:48.398Z,100967.00
2018-08-28T01:17:17.765Z,100959.00
2018-08-28T01:19:47.089Z,100964.00
2018-08-28T01:22:16.421Z,100964.00
2018-08-28T01:24:45.733Z,100972.00
2018-08-28T01:27:15.104Z,100970.00
2018-08-28T01:29:44.521Z,100969.00
2018-08-28T01:32:14.963Z,100973.00
2018-08-28T01:34:44.239Z,100976.00
2018-08-28T01:37:13.544Z,100969.00
2018-08-28T01:39:42.861Z,100967.00
2018-08-28T01:42:12.263Z,100973.00
2018-08-28T01:44:41.570Z,100975.00
2018-08-28T01:47:10.903Z,100975.00
2018-08-28T01:49:40.169Z,100978.00
2018-08-28T01:52:09.418Z,100972.00
2018-08-28T01:54:38.627Z,100973.00
2018-08-28T01:57:08.043Z,100965.00
2018-08-28T01:59:37.333Z,100956.00
2018-08-28T02:02:06.626Z,100957.00
2018-08-28T02:04:35.914Z,100957.00
2018-08-28T02:07:05.477Z,100962.00
2018-08-28T02:09:34.792Z,100963.00
2018-08-28T02:12:04.127Z,100955.00
2018-08-28T02:14:33.528Z,100965.00
2018-08-28T02:17:03.019Z,100966.00
2018-08-28T02:19:32.461Z,100980.00
2018-08-28T02:22:01.839Z,100973.00
2018-08-28T02:24:31.301Z,100972.00
2018-08-28T02:27:00.532Z,100979.00
2018-08-28T02:29:29.800Z,100975.00
2018-08-28T02:31:59.101Z,100975.00
2018-08-28T02:34:28.566Z,100984.00
2018-08-28T02:36:57.857Z,100975.00
2018-08-28T02:39:27.166Z,100975.00
2018-08-28T02:41:56.546Z,100978.00
2018-08-28T02:44:26.631Z,100974.00
2018-08-28T02:46:55.890Z,100978.00
2018-08-28T02:49:25.170Z,100986.00
2018-08-28T02:51:54.571Z,100983.00
2018-08-28T02:54:23.856Z,100989.00
2018-08-28T02:56:53.071Z,100990.00
2018-08-28T02:59:22.366Z,100987.00
2018-08-28T03:01:51.769Z,100987.00
2018-08-28T03:04:21.009Z,100986.00
2018-08-28T03:06:50.283Z,100986.00
2018-08-28T03:09:20.669Z,100991.00
2018-08-28T03:11:49.971Z,100993.00
2018-08-28T03:14:19.282Z,100992.00
2018-08-28T03:16:48.608Z,100988.00
2018-08-28T03:19:17.889Z,100991.00
2018-08-28T03:21:47.207Z,100994.00
2018-08-28T03:24:22.532Z,100995.00
2018-08-28T03:26:51.773Z,101006.00
2018-08-28T03:29:21.140Z,101006.00
2018-08-28T03:31:50.576Z,101007.00
2018-08-28T03:34:19.831Z,101003.00
2018-08-28T03:36:49.143Z,101017.00
2018-08-28T03:39:18.403Z,101006.00
2018-08-28T03:41:47.631Z,101010.00
2018-08-28T03:44:18.108Z,101010.00
2018-08-28T03:46:47.385Z,101012.00
2018-08-28T03:49:16.683Z,101004.00
2018-08-28T03:51:45.963Z,101023.00
2018-08-28T03:54:15.267Z,101015.00
2018-08-28T03:56:44.564Z,101021.00
2018-08-28T03:59:13.879Z,101017.00
2018-08-28T04:01:46.366Z,101026.00
2018-08-28T04:04:15.643Z,101024.00
2018-08-28T04:06:44.899Z,101028.00
2018-08-28T04:09:14.263Z,101032.00
2018-08-28T04:11:43.574Z,101030.00
2018-08-28T04:14:12.907Z,101027.00
2018-08-28T04:16:42.202Z,101023.00
2018-08-28T04:19:11.577Z,101031.00
2018-08-28T04:21:40.867Z,101036.00
2018-08-28T04:24:10.190Z,101041.00
2018-08-28T04:26:39.470Z,101043.00
2018-08-28T04:29:09.159Z,101042.00
2018-08-28T04:31:38.432Z,101044.00
2018-08-28T04:34:07.811Z,101042.00
2018-08-28T04:36:37.136Z,101044.00
2018-08-28T04:39:08.063Z,101047.00
2018-08-28T04:41:43.883Z,101052.00
2018-08-28T04:44:13.186Z,101050.00
2018-08-28T04:46:42.443Z,101056.00
2018-08-28T04:49:11.730Z,101049.00
2018-08-28T04:51:40.992Z,101055.00
2018-08-28T04:54:10.359Z,101053.00
2018-08-28T04:56:39.656Z,101055.00
2018-08-28T04:59:09.049Z,101061.00
2018-08-28T05:01:38.390Z,101060.00
2018-08-28T05:04:07.748Z,101060.00
2018-08-28T05:06:37.099Z,101058.00
2018-08-28T05:09:07.908Z,101064.00
2018-08-28T05:11:37.328Z,101063.00
2018-08-28T05:14:06.711Z,101078.00
2018-08-28T05:16:36.008Z,101074.00
2018-08-28T05:19:05.426Z,101074.00
2018-08-28T05:21:34.835Z,101080.00
2018-08-28T05:24:04.195Z,101082.00
2018-08-28T05:26:33.479Z,101084.00
2018-08-28T05:29:02.800Z,101093.00
2018-08-28T05:31:32.168Z,101091.00
2018-08-28T05:34:01.480Z,101096.00
2018-08-28T05:36:30.927Z,101092.00
2018-08-28T05:39:00.289Z,101102.00
2018-08-28T05:41:29.608Z,101096.00
2018-08-28T05:43:58.985Z,101103.00
2018-08-28T05:46:28.285Z,101103.00
2018-08-28T05:48:57.659Z,101109.00
2018-08-28T05:51:27.143Z,101107.00
2018-08-28T05:53:56.852Z,101110.00
2018-08-28T05:56:26.212Z,101115.00
2018-08-28T05:59:02.208Z,101114.00
2018-08-28T06:01:31.558Z,101119.00
2018-08-28T06:04:00.756Z,101116.00
2018-08-28T06:06:30.057Z,101125.00
2018-08-28T06:08:59.646Z,101125.00
2018-08-28T06:11:30.046Z,101117.00
2018-08-28T06:13:59.344Z,101117.00
2018-08-28T06:16:28.672Z,101120.00
2018-08-28T06:18:57.986Z,101119.00
2018-08-28T06:21:27.302Z,101118.00
2018-08-28T06:23:56.639Z,101127.00
2018-08-28T06:26:25.926Z,101124.00
2018-08-28T06:28:55.180Z,101126.00
2018-08-28T06:31:24.406Z,101132.00
2018-08-28T06:33:53.810Z,101137.00
2018-08-28T06:36:23.145Z,101139.00
2018-08-28T06:38:52.458Z,101148.00
2018-08-28T06:41:21.750Z,101145.00
2018-08-28T06:43:51.178Z,101140.00
2018-08-28T06:46:20.503Z,101138.00
2018-08-28T06:48:49.988Z,101143.00
2018-08-28T06:51:24.261Z,101144.00
2018-08-28T06:53:53.526Z,101141.00
2018-08-28T06:56:22.791Z,101142.00
2018-08-28T06:58:54.199Z,101140.00
2018-08-28T07:01:23.436Z,101140.00
2018-08-28T07:03:53.166Z,101144.00
2018-08-28T07:06:22.507Z,101153.00
2018-08-28T07:08:51.830Z,101155.00
2018-08-28T07:11:21.117Z,101158.00
2018-08-28T07:13:50.453Z,101164.00
2018-08-28T07:16:19.834Z,101159.00
2018-08-28T07:18:49.163Z,101162.00
2018-08-28T07:21:18.423Z,101173.00
2018-08-28T07:23:47.752Z,101167.00
2018-08-28T07:26:17.028Z,101172.00
2018-08-28T07:28:48.391Z,101180.00
2018-08-28T07:31:17.788Z,101184.00
2018-08-28T07:33:47.121Z,101180.00
2018-08-28T07:36:16.364Z,101182.00
2018-08-28T07:38:46.703Z,101190.00
2018-08-28T07:41:16.000Z,101181.00
2018-08-28T07:43:45.346Z,101185.00
2018-08-28T07:46:15.126Z,101183.00
2018-08-28T07:48:44.440Z,101178.00
2018-08-28T07:51:19.751Z,101185.00
2018-08-28T07:53:49.070Z,101197.00
2018-08-28T07:56:18.310Z,101190.00
2018-08-28T07:58:47.966Z,101195.00
2018-08-28T08:01:17.305Z,101193.00
2018-08-28T08:03:46.588Z,101189.00
2018-08-28T08:06:15.887Z,101195.00
2018-08-28T08:08:45.283Z,101191.00
2018-08-28T08:11:16.616Z,101193.00
2018-08-28T08:13:45.929Z,101192.00
2018-08-28T08:16:15.274Z,101192.00
2018-08-28T08:18:44.792Z,101192.00
2018-08-28T08:21:14.289Z,101182.00
2018-08-28T08:23:46.066Z,101189.00
2018-08-28T08:26:15.387Z,101193.00
2018-08-28T08:28:44.676Z,101188.00
2018-08-28T08:31:13.932Z,101195.00
2018-08-28T08:33:43.240Z,101193.00
2018-08-28T08:36:12.562Z,101201.00
2018-08-28T08:38:41.827Z,101195.00
2018-08-28T08:41:11.156Z,101189.00
2018-08-28T08:43:40.416Z,101196.00
2018-08-28T08:46:09.757Z,101195.00
2018-08-28T08:48:39.011Z,101195.00
2018-08-28T08:51:08.314Z,101192.00
2018-08-28T08:53:37.610Z,101197.00
2018-08-28T08:56:06.915Z,101197.00
2018-08-28T08:58:36.237Z,101184.00
2018-08-28T09:01:06.736Z,101192.00
2018-08-28T09:03:35.979Z,101193.00
2018-08-28T09:06:05.364Z,101192.00
2018-08-28T09:08:34.683Z,101192.00
2018-08-28T09:11:04.077Z,101194.00
2018-08-28T09:13:33.505Z,101188.00
2018-08-28T09:16:02.855Z,101189.00
2018-08-28T09:18:32.269Z,101194.00
2018-08-28T09:21:01.496Z,101186.00
2018-08-28T09:23:30.750Z,101181.00
2018-08-28T09:26:00.024Z,101181.00
2018-08-28T09:28:29.547Z,101182.00
2018-08-28T09:30:58.847Z,101179.00
2018-08-28T09:33:28.130Z,101176.00
2018-08-28T09:35:57.352Z,101177.00
2018-08-28T09:38:26.732Z,101174.00
2018-08-28T09:40:55.929Z,101187.00
2018-08-28T09:43:25.166Z,101184.00
2018-08-28T09:45:54.440Z,101179.00
2018-08-28T09:48:23.945Z,101176.00
2018-08-28T09:50:53.521Z,101188.00
2018-08-28T09:53:22.925Z,101183.00
2018-08-28T09:55:52.327Z,101186.00
2018-08-28T09:58:21.773Z,101182.00
2018-08-28T10:01:56.935Z,101184.00
2018-08-28T10:04:26.247Z,101193.00
2018-08-28T10:06:55.675Z,101191.00
2018-08-28T10:09:25.270Z,101191.00
2018-08-28T10:11:54.687Z,101188.00
2018-08-28T10:14:24.001Z,101192.00
2018-08-28T10:16:53.396Z,101193.00
2018-08-28T10:19:22.976Z,101185.00
2018-08-28T10:21:52.247Z,101192.00
2018-08-28T10:24:21.919Z,101197.00
2018-08-28T10:26:51.171Z,101191.00
2018-08-28T10:29:20.519Z,101197.00
2018-08-28T10:31:49.805Z,101197.00
2018-08-28T10:34:19.174Z,101194.00
2018-08-28T10:36:48.412Z,101203.00
2018-08-28T10:39:17.627Z,101199.00
2018-08-28T10:41:46.915Z,101190.00
2018-08-28T10:44:16.111Z,101191.00
2018-08-28T10:46:45.502Z,101192.00
2018-08-28T10:49:14.779Z,101196.00
2018-08-28T10:51:44.077Z,101197.00
2018-08-28T10:54:13.651Z,101191.00
2018-08-28T10:56:42.941Z,101197.00
2018-08-28T10:59:12.328Z,101196.00
2018-08-28T11:01:41.610Z,101203.00
2018-08-28T11:04:10.854Z,101205.00
2018-08-28T11:06:40.191Z,101202.00
2018-08-28T11:09:09.705Z,101205.00
2018-08-28T11:11:39.131Z,101204.00
2018-08-28T11:14:08.976Z,101204.00
2018-08-28T11:16:38.435Z,101213.00
2018-08-28T11:19:07.827Z,101200.00
2018-08-28T11:21:37.223Z,101205.00
2018-08-28T11:24:06.592Z,101201.00
2018-08-28T11:26:36.132Z,101208.00
2018-08-28T11:29:05.889Z,101206.00
2018-08-28T11:31:35.160Z,101215.00
2018-08-28T11:34:04.580Z,101214.00
2018-08-28T11:36:33.995Z,101211.00
2018-08-28T11:39:03.321Z,101210.00
2018-08-28T11:41:32.608Z,101208.00
2018-08-28T11:44:02.019Z,101207.00
2018-08-28T11:46:31.356Z,101205.00
2018-08-28T11:49:00.582Z,101207.00
2018-08-28T11:51:29.989Z,101204.00
2018-08-28T11:54:00.876Z,101207.00
2018-08-28T11:56:30.167Z,101195.00
2018-08-28T11:58:59.466Z,101194.00
2018-08-28T12:01:29.800Z,101190.00
2018-08-28T12:03:59.063Z,101192.00
2018-08-28T12:06:28.442Z,101191.00
2018-08-28T12:08:57.937Z,101184.00
2018-08-28T12:11:27.284Z,101185.00
2018-08-28T12:14:04.196Z,101188.00
2018-08-28T12:16:33.579Z,101182.00
2018-08-28T12:19:03.028Z,101184.00
2018-08-28T12:21:32.324Z,101178.00
2018-08-28T12:24:01.627Z,101180.00
2018-08-28T12:26:30.994Z,101176.00
2018-08-28T12:29:00.267Z,101169.00
2018-08-28T12:31:29.655Z,101172.00
2018-08-28T12:33:59.108Z,101174.00
2018-08-28T12:36:28.467Z,101175.00
2018-08-28T12:38:57.755Z,101164.00
2018-08-28T12:41:27.198Z,101163.00
2018-08-28T12:43:56.623Z,101167.00
2018-08-28T12:46:25.877Z,101152.00
2018-08-28T12:48:55.151Z,101152.00
2018-08-28T12:51:24.561Z,101151.00
2018-08-28T12:53:53.769Z,101150.00
2018-08-28T12:56:23.138Z,101154.00
2018-08-28T12:58:52.512Z,101145.00
2018-08-28T13:01:21.847Z,101132.00
2018-08-28T13:03:51.201Z,101138.00
2018-08-28T13:06:20.510Z,101143.00
2018-08-28T13:08:49.812Z,101138.00
2018-08-28T13:11:19.145Z,101131.00
2018-08-28T13:13:49.314Z,101134.00
2018-08-28T13:16:18.700Z,101131.00
2018-08-28T13:18:48.086Z,101133.00
2018-08-28T13:21:17.399Z,101129.00
2018-08-28T13:23:47.079Z,101136.00
2018-08-28T13:26:16.511Z,101132.00
2018-08-28T13:28:45.813Z,101129.00
2018-08-28T13:31:15.175Z,101131.00
2018-08-28T13:33:44.560Z,101133.00
2018-08-28T13:36:13.851Z,101131.00
2018-08-28T13:38:43.104Z,101134.00
2018-08-28T13:41:12.534Z,101126.00
2018-08-28T13:43:41.858Z,101132.00
2018-08-28T13:46:11.156Z,101136.00
2018-08-28T13:48:40.431Z,101130.00
2018-08-28T13:51:09.727Z,101122.00
2018-08-28T13:53:39.099Z,101127.00
2018-08-28T13:56:08.341Z,101119.00
2018-08-28T13:58:39.571Z,101133.00
2018-08-28T14:01:08.879Z,101125.00
2018-08-28T14:03:38.117Z,101123.00
2018-08-28T14:06:07.419Z,101120.00
2018-08-28T14:08:36.686Z,101116.00
2018-08-28T14:11:05.681Z,101126.00
2018-08-28T14:13:35.010Z,101113.00
2018-08-28T14:16:04.236Z,101121.00
2018-08-28T14:18:33.536Z,101120.00
2018-08-28T14:21:02.799Z,101115.00
2018-08-28T14:23:32.282Z,101120.00
2018-08-28T14:26:01.656Z,101109.00
2018-08-28T14:28:30.994Z,101106.00
2018-08-28T14:31:00.299Z,101113.00
2018-08-28T14:33:37.462Z,101110.00
2018-08-28T14:36:06.799Z,101105.00
2018-08-28T14:38:36.128Z,101102.00
2018-08-28T14:41:06.518Z,101108.00
2018-08-28T14:43:35.789Z,101101.00
2018-08-28T14:46:06.470Z,101099.00
2018-08-28T14:48:35.839Z,101094.00
2018-08-28T14:51:05.500Z,101086.00
2018-08-28T14:53:37.026Z,101089.00
2018-08-28T14:56:06.476Z,101089.00
2018-08-28T14:58:35.832Z,101085.00
2018-08-28T15:01:05.162Z,101084.00
2018-08-28T15:03:34.436Z,101084.00
2018-08-28T15:06:03.764Z,101095.00
2018-08-28T15:08:33.002Z,101092.00
2018-08-28T15:11:02.301Z,101083.00
2018-08-28T15:13:31.571Z,101083.00
2018-08-28T15:16:00.882Z,101083.00
2018-08-28T15:18:30.185Z,101083.00
2018-08-28T15:20:59.551Z,101080.00
2018-08-28T15:23:28.840Z,101086.00
2018-08-28T15:25:59.250Z,101080.00
2018-08-28T15:28:28.549Z,101085.00
2018-08-28T15:30:57.844Z,101089.00
2018-08-28T15:33:27.236Z,101088.00
2018-08-28T15:35:56.516Z,101082.00
2018-08-28T15:38:26.009Z,101083.00
2018-08-28T15:40:55.400Z,101089.00
2018-08-28T15:43:24.730Z,101080.00
2018-08-28T15:45:54.074Z,101090.00
2018-08-28T15:48:24.014Z,101086.00
2018-08-28T15:50:53.412Z,101079.00
2018-08-28T15:53:23.776Z,101080.00
2018-08-28T15:55:53.164Z,101074.00
2018-08-28T15:58:26.391Z,101070.00
2018-08-28T16:00:55.644Z,101077.00
2018-08-28T16:03:25.049Z,101073.00
2018-08-28T16:05:55.536Z,101071.00
2018-08-28T16:08:24.873Z,101069.00
2018-08-28T16:10:54.266Z,101061.00
2018-08-28T16:13:23.651Z,101071.00
2018-08-28T16:15:53.048Z,101067.00
2018-08-28T16:18:22.435Z,101067.00
2018-08-28T16:20:51.812Z,101067.00
2018-08-28T16:23:26.237Z,101066.00
2018-08-28T16:25:55.618Z,101064.00
2018-08-28T16:28:24.969Z,101064.00
2018-08-28T16:30:54.324Z,101060.00
2018-08-28T16:33:23.634Z,101060.00
2018-08-28T16:35:53.155Z,101056.00
2018-08-28T16:38:22.570Z,101051.00
2018-08-28T16:40:51.889Z,101056.00
2018-08-28T16:43:21.188Z,101062.00
2018-08-28T16:45:50.598Z,101058.00
2018-08-28T16:48:19.917Z,101048.00
2018-08-28T16:50:49.205Z,101050.00
2018-08-28T16:53:18.510Z,101049.00
2018-08-28T16:55:47.827Z,101044.00
2018-08-28T16:58:17.080Z,101038.00
2018-08-28T17:00:47.508Z,101045.00
2018-08-28T17:03:17.503Z,101049.00
2018-08-28T17:05:46.815Z,101038.00
2018-08-28T17:08:16.093Z,101034.00
2018-08-28T17:10:46.555Z,101027.00
2018-08-28T17:13:15.941Z,101025.00
2018-08-28T17:15:45.223Z,101033.00
2018-08-28T17:18:15.323Z,101036.00
2018-08-28T17:20:44.622Z,101031.00
2018-08-28T17:23:15.165Z,101033.00
2018-08-28T17:25:44.466Z,101035.00
2018-08-28T17:28:13.839Z,101028.00
2018-08-28T17:30:43.205Z,101033.00
2018-08-28T17:33:12.506Z,101028.00
2018-08-28T17:35:42.016Z,101021.00
2018-08-28T17:38:11.595Z,101015.00
2018-08-28T17:40:40.950Z,101011.00
2018-08-28T17:43:10.487Z,101009.00
2018-08-28T17:45:39.868Z,101017.00
2018-08-28T17:48:13.188Z,101011.00
2018-08-28T17:50:42.542Z,101010.00
2018-08-28T17:53:11.900Z,101010.00
2018-08-28T17:55:41.215Z,101007.00
2018-08-28T17:58:10.555Z,101018.00
2018-08-28T18:00:39.990Z,101018.00
2018-08-28T18:03:09.355Z,101010.00
2018-08-28T18:05:40.988Z,101001.00
2018-08-28T18:08:10.585Z,101001.00
2018-08-28T18:10:40.104Z,100999.00
2018-08-28T18:13:09.835Z,101001.00
2018-08-28T18:15:39.290Z,100997.00
2018-08-28T18:18:08.571Z,101002.00
2018-08-28T18:20:38.949Z,101003.00
2018-08-28T18:23:08.367Z,101011.00
2018-08-28T18:25:46.443Z,101006.00
2018-08-28T18:28:17.876Z,101010.00
2018-08-28T18:30:47.599Z,101008.00
2018-08-28T18:33:16.984Z,101002.00
2018-08-28T18:35:47.006Z,101012.00
2018-08-28T18:38:16.665Z,101019.00
2018-08-28T18:40:46.053Z,101015.00
2018-08-28T18:43:17.464Z,101014.00
2018-08-28T18:45:46.875Z,101013.00
2018-08-28T18:48:17.367Z,101013.00
2018-08-28T18:50:48.796Z,101020.00
2018-08-28T18:53:18.177Z,101019.00
2018-08-28T18:55:47.609Z,101011.00
2018-08-28T18:58:17.020Z,101012.00
2018-08-28T19:00:46.379Z,101015.00
2018-08-28T19:03:16.972Z,101008.00
2018-08-28T19:05:46.450Z,101010.00
2018-08-28T19:08:16.141Z,101011.00
2018-08-28T19:10:45.997Z,101007.00
2018-08-28T19:13:22.054Z,101014.00
2018-08-28T19:15:51.825Z,101005.00
2018-08-28T19:18:38.585Z,101013.00
2018-08-28T19:21:07.917Z,101021.00
2018-08-28T19:23:37.662Z,101016.00
2018-08-28T19:26:07.519Z,101013.00
2018-08-28T19:28:37.385Z,101005.00
2018-08-28T19:31:08.721Z,101009.00
2018-08-28T19:33:38.159Z,101009.00
2018-08-28T19:36:07.940Z,101015.00
2018-08-28T19:38:37.269Z,101014.00
2018-08-28T19:41:14.016Z,101005.00
2018-08-28T19:43:44.388Z,100997.00
2018-08-28T19:46:13.632Z,101002.00
2018-08-28T19:48:43.053Z,100988.00
2018-08-28T19:51:12.425Z,100993.00
2018-08-28T19:53:41.805Z,100992.00
2018-08-28T19:56:11.136Z,100986.00
2018-08-28T19:58:42.415Z,100986.00
2018-08-28T20:01:11.748Z,100990.00
2018-08-28T20:03:42.254Z,100984.00
2018-08-28T20:06:20.178Z,100982.00
2018-08-28T20:08:49.522Z,100981.00
2018-08-28T20:11:18.918Z,100978.00
2018-08-28T20:13:48.337Z,100979.00
2018-08-28T20:16:17.903Z,100975.00
2018-08-28T20:18:47.240Z,100985.00
2018-08-28T20:21:16.855Z,100977.00
2018-08-28T20:23:46.698Z,100971.00
2018-08-28T20:26:16.892Z,100973.00
2018-08-28T20:28:46.506Z,100976.00
2018-08-28T20:31:20.015Z,100960.00
2018-08-28T20:33:49.950Z,100969.00
2018-08-28T20:36:19.432Z,100974.00
2018-08-28T20:38:48.723Z,100967.00
2018-08-28T20:41:18.046Z,100961.00
2018-08-28T20:43:47.498Z,100966.00
2018-08-28T20:46:17.273Z,100971.00
2018-08-28T20:48:46.587Z,100969.00
2018-08-28T20:51:16.016Z,100974.00
2018-08-28T20:53:45.367Z,100964.00
2018-08-28T20:56:14.740Z,100968.00
2018-08-28T20:58:44.455Z,100960.00
2018-08-28T21:01:13.956Z,100968.00
2018-08-28T21:03:43.517Z,100957.00
2018-08-28T21:06:13.165Z,100948.00
2018-08-28T21:08:42.513Z,100949.00
2018-08-28T21:11:11.918Z,100946.00
2018-08-28T21:13:41.276Z,100943.00
2018-08-28T21:16:15.543Z,100949.00
2018-08-28T21:18:44.999Z,100947.00
2018-08-28T21:21:14.311Z,100949.00
2018-08-28T21:23:44.716Z,100942.00
2018-08-28T21:26:14.118Z,100940.00
2018-08-28T21:28:43.475Z,100937.00
2018-08-28T21:31:12.827Z,100936.00
2018-08-28T21:33:42.496Z,100942.00
2018-08-28T21:36:11.799Z,100941.00
2018-08-28T21:38:41.143Z,100935.00
2018-08-28T21:41:10.497Z,100935.00
2018-08-28T21:43:41.862Z,100935.00
2018-08-28T21:46:11.540Z,100930.00
2018-08-28T21:48:40.862Z,100922.00
2018-08-28T21:51:10.191Z,100928.00
2018-08-28T21:53:39.489Z,100925.00
2018-08-28T21:56:08.917Z,100931.00
2018-08-28T21:58:38.320Z,100917.00
2018-08-28T22:01:11.137Z,100923.00
2018-08-28T22:03:41.710Z,100918.00
2018-08-28T22:06:16.267Z,100914.00
2018-08-28T22:08:50.591Z,100915.00
2018-08-28T22:11:19.891Z,100911.00
2018-08-28T22:13:49.245Z,100907.00
2018-08-28T22:16:18.612Z,100916.00
2018-08-28T22:18:48.078Z,100908.00
2018-08-28T22:21:18.063Z,100905.00
2018-08-28T22:23:47.352Z,100908.00
2018-08-28T22:26:16.744Z,100908.00
2018-08-28T22:28:46.073Z,100901.00
2018-08-28T22:31:15.321Z,100896.00
2018-08-28T22:33:44.674Z,100912.00
2018-08-28T22:36:14.105Z,100900.00
2018-08-28T22:38:43.419Z,100902.00
2018-08-28T22:41:12.706Z,100898.00
2018-08-28T22:43:42.008Z,100897.00
2018-08-28T22:46:11.309Z,100895.00
2018-08-28T22:48:40.653Z,100900.00
2018-08-28T22:51:10.000Z,100893.00
2018-08-28T22:53:39.230Z,100886.00
2018-08-28T22:56:08.542Z,100892.00
2018-08-28T22:58:37.865Z,100883.00
2018-08-28T23:01:07.163Z,100879.00
2018-08-28T23:03:36.520Z,100881.00
2018-08-28T23:06:05.860Z,100880.00
2018-08-28T23:08:35.239Z,100866.00
2018-08-28T23:11:04.539Z,100861.00
2018-08-28T23:13:33.923Z,100859.00
2018-08-28T23:16:03.603Z,100860.00
2018-08-28T23:18:32.919Z,100857.00
2018-08-28T23:21:02.283Z,100847.00
2018-08-28T23:23:31.616Z,100857.00
2018-08-28T23:26:00.883Z,100855.00
2018-08-28T23:28:30.187Z,100856.00
2018-08-28T23:31:03.532Z,100863.00
2018-08-28T23:33:32.905Z,100857.00
2018-08-28T23:36:02.268Z,100858.00
2018-08-28T23:38:31.521Z,100847.00
2018-08-28T23:41:00.767Z,100849.00
2018-08-28T23:43:34.960Z,100851.00
2018-08-28T23:46:04.255Z,100847.00
2018-08-28T23:48:33.527Z,100836.00
2018-08-28T23:51:02.867Z,100838.00
2018-08-28T23:53:32.158Z,100836.00
2018-08-28T23:56:02.491Z,100836.00
2018-08-28T23:58:31.755Z,100830.00
